createdAt,value
2023-07-11T00:01:28.026Z,6.38
2023-07-11T00:03:58.218Z,6.32
2023-07-11T00:06:27.332Z,9.63
2023-07-11T00:09:00.044Z,5.47
2023-07-11T00:11:35.040Z,7.75
2023-07-11T00:14:06.260Z,7.95
2023-07-11T00:16:36.427Z,9.82
2023-07-11T00:19:14.486Z,5.35
2023-07-11T00:21:49.110Z,7.85
2023-07-11T00:24:19.582Z,5.82
2023-07-11T00:26:51.309Z,5.78
2023-07-11T00:29:50.173Z,6.47
2023-07-11T00:32:25.221Z,5.35
2023-07-11T00:34:55.290Z,5.18
2023-07-11T00:37:24.385Z,7.53
2023-07-11T00:40:00.585Z,9.93
2023-07-11T00:42:33.262Z,6.75
2023-07-11T00:45:06.797Z,6.47
2023-07-11T00:47:36.701Z,7.20
2023-07-11T00:50:13.015Z,8.57
2023-07-11T00:52:42.980Z,6.45
2023-07-11T00:55:17.153Z,10.80
2023-07-11T00:57:50.380Z,7.17
2023-07-11T01:00:22.236Z,7.27
2023-07-11T01:03:11.048Z,7.13
2023-07-11T01:05:44.451Z,5.23
2023-07-11T01:08:15.663Z,9.27
2023-07-11T01:10:55.518Z,6.63
2023-07-11T01:13:24.926Z,6.00
2023-07-11T01:15:54.882Z,9.07
2023-07-11T01:18:46.785Z,6.67
2023-07-11T01:21:53.546Z,7.23
2023-07-11T01:24:26.225Z,10.53
2023-07-11T01:27:00.246Z,7.67
2023-07-11T01:29:34.244Z,6.53
2023-07-11T01:32:08.286Z,8.43
2023-07-11T01:34:39.345Z,6.63
2023-07-11T01:37:10.668Z,8.10
2023-07-11T01:39:40.006Z,7.83
2023-07-11T01:42:11.233Z,7.27
2023-07-11T01:44:42.224Z,6.73
2023-07-11T01:47:12.340Z,5.23
2023-07-11T01:49:48.484Z,9.33
2023-07-11T01:52:22.530Z,7.57
2023-07-11T01:54:53.308Z,7.87
2023-07-11T01:57:31.787Z,10.77
2023-07-11T02:00:02.119Z,8.47
2023-07-11T02:02:31.317Z,6.30
2023-07-11T02:05:04.373Z,6.73
2023-07-11T02:07:44.045Z,7.83
2023-07-11T02:10:15.092Z,7.87
2023-07-11T02:12:44.682Z,6.63
2023-07-11T02:15:18.397Z,9.83
2023-07-11T02:17:49.022Z,7.73
2023-07-11T02:20:24.328Z,7.63
2023-07-11T02:22:55.818Z,5.50
2023-07-11T02:25:57.796Z,7.30
2023-07-11T02:28:26.807Z,7.70
2023-07-11T02:30:58.071Z,8.17
2023-07-11T02:33:41.061Z,7.57
2023-07-11T02:36:12.210Z,6.93
2023-07-11T02:38:46.622Z,7.60
2023-07-11T02:41:21.630Z,8.90
2023-07-11T02:43:59.842Z,9.57
2023-07-11T02:46:36.065Z,8.10
2023-07-11T02:49:10.236Z,8.03
2023-07-11T02:51:45.180Z,5.30
2023-07-11T02:54:17.649Z,7.80
2023-07-11T02:56:52.653Z,6.73
2023-07-11T02:59:50.030Z,6.93
2023-07-11T03:02:26.353Z,7.50
2023-07-11T03:05:23.923Z,6.40
2023-07-11T03:07:59.882Z,7.40
2023-07-11T03:11:01.301Z,5.77
2023-07-11T03:13:30.679Z,5.77
2023-07-11T03:16:05.302Z,10.23
2023-07-11T03:18:38.369Z,7.03
2023-07-11T03:21:09.335Z,8.47
2023-07-11T03:23:42.192Z,5.93
2023-07-11T03:26:17.478Z,7.87
2023-07-11T03:28:47.460Z,5.47
2023-07-11T03:31:21.330Z,6.57
2023-07-11T03:33:50.984Z,9.40
2023-07-11T03:36:56.950Z,6.13
2023-07-11T03:39:37.932Z,8.93
2023-07-11T03:43:03.989Z,8.93
2023-07-11T03:45:43.745Z,7.03
2023-07-11T03:48:12.799Z,8.20
2023-07-11T03:50:52.919Z,4.53
2023-07-11T03:54:19.154Z,5.87
2023-07-11T03:56:48.094Z,11.03
2023-07-11T03:59:45.327Z,7.80
2023-07-11T04:02:17.316Z,9.83
2023-07-11T04:05:19.924Z,8.07
2023-07-11T04:07:48.799Z,7.00
2023-07-11T04:10:17.733Z,9.27
2023-07-11T04:12:46.711Z,6.33
2023-07-11T04:15:15.716Z,7.20
2023-07-11T04:17:46.129Z,6.67
2023-07-11T04:20:15.165Z,8.57
2023-07-11T04:22:43.904Z,7.97
2023-07-11T04:25:12.745Z,8.03
2023-07-11T04:27:41.681Z,6.53
2023-07-11T04:30:11.684Z,8.37
2023-07-11T04:32:40.637Z,7.37
2023-07-11T04:35:16.092Z,8.30
2023-07-11T04:37:45.004Z,8.67
2023-07-11T04:40:14.613Z,8.17
2023-07-11T04:42:43.645Z,13.20
2023-07-11T04:45:13.383Z,6.53
2023-07-11T04:47:44.416Z,6.40
2023-07-11T04:50:16.783Z,6.77
2023-07-11T04:52:47.299Z,10.87
2023-07-11T04:55:16.303Z,9.30
2023-07-11T04:57:45.179Z,7.57
2023-07-11T05:00:15.214Z,10.27
2023-07-11T05:02:44.098Z,9.80
2023-07-11T05:05:14.000Z,8.00
2023-07-11T05:07:44.239Z,8.87
2023-07-11T05:10:14.470Z,7.07
2023-07-11T05:12:44.448Z,6.50
2023-07-11T05:15:14.199Z,8.03
2023-07-11T05:17:43.203Z,5.37
2023-07-11T05:20:12.691Z,8.73
2023-07-11T05:22:42.113Z,10.43
2023-07-11T05:25:12.609Z,9.00
2023-07-11T05:27:41.509Z,11.33
2023-07-11T05:30:13.863Z,7.07
2023-07-11T05:32:42.852Z,9.47
2023-07-11T05:35:11.610Z,9.40
2023-07-11T05:37:40.561Z,10.97
2023-07-11T05:40:12.118Z,6.37
2023-07-11T05:42:41.024Z,11.90
2023-07-11T05:45:10.570Z,9.43
2023-07-11T05:47:39.579Z,8.47
2023-07-11T05:50:09.680Z,8.10
2023-07-11T05:52:38.578Z,7.15
2023-07-11T05:55:08.157Z,10.93
2023-07-11T05:57:38.532Z,7.63
2023-07-11T06:00:11.084Z,13.30
2023-07-11T06:02:42.858Z,9.63
2023-07-11T06:05:12.085Z,14.07
2023-07-11T06:07:40.920Z,15.90
2023-07-11T06:10:10.750Z,13.50
2023-07-11T06:12:41.086Z,13.13
2023-07-11T06:15:10.820Z,9.35
2023-07-11T06:17:39.815Z,12.00
2023-07-11T06:20:11.311Z,18.08
2023-07-11T06:22:40.346Z,8.15
2023-07-11T06:25:10.229Z,9.48
2023-07-11T06:27:40.687Z,18.05
2023-07-11T06:30:10.973Z,11.60
2023-07-11T06:32:39.945Z,9.43
2023-07-11T06:35:09.724Z,9.45
2023-07-11T06:37:38.626Z,8.93
2023-07-11T06:40:10.407Z,15.93
2023-07-11T06:42:41.782Z,9.25
2023-07-11T06:45:11.361Z,9.45
2023-07-11T06:47:40.201Z,9.40
2023-07-11T06:50:10.550Z,10.35
2023-07-11T06:52:39.373Z,7.32
2023-07-11T06:55:09.280Z,14.27
2023-07-11T06:57:38.184Z,11.85
2023-07-11T07:00:11.015Z,11.75
2023-07-11T07:02:40.233Z,12.98
2023-07-11T07:05:09.807Z,11.80
2023-07-11T07:07:38.734Z,9.15
2023-07-11T07:10:08.986Z,10.52
2023-07-11T07:12:37.912Z,11.65
2023-07-11T07:15:09.760Z,7.65
2023-07-11T07:17:38.769Z,12.10
2023-07-11T07:20:09.248Z,9.05
2023-07-11T07:22:39.904Z,9.32
2023-07-11T07:25:23.633Z,10.70
2023-07-11T07:27:54.479Z,9.68
2023-07-11T07:30:25.010Z,7.20
2023-07-11T07:32:54.144Z,12.15
2023-07-11T07:35:23.575Z,7.22
2023-07-11T07:37:52.454Z,7.47
2023-07-11T07:40:21.197Z,9.93
2023-07-11T07:42:50.192Z,10.55
2023-07-11T07:45:19.994Z,8.60
2023-07-11T07:47:50.507Z,9.20
2023-07-11T07:50:19.562Z,7.80
2023-07-11T07:52:48.816Z,10.68
2023-07-11T07:55:17.702Z,10.32
2023-07-11T07:57:47.639Z,8.10
2023-07-11T08:00:17.299Z,10.02
2023-07-11T08:02:53.618Z,10.80
2023-07-11T08:05:23.031Z,8.48
2023-07-11T08:07:52.099Z,9.48
2023-07-11T08:10:21.088Z,10.20
2023-07-11T08:12:49.984Z,8.30
2023-07-11T08:15:18.946Z,8.10
2023-07-11T08:17:48.327Z,8.38
2023-07-11T08:20:19.840Z,9.18
2023-07-11T08:22:48.761Z,6.47
2023-07-11T08:25:17.641Z,7.13
2023-07-11T08:27:46.725Z,7.28
2023-07-11T08:30:15.735Z,8.82
2023-07-11T08:32:45.083Z,11.98
2023-07-11T08:35:15.244Z,9.88
2023-07-11T08:37:45.724Z,11.25
2023-07-11T08:40:31.182Z,7.35
2023-07-11T08:43:09.118Z,9.57
2023-07-11T08:45:54.579Z,12.18
2023-07-11T08:48:38.377Z,7.55
2023-07-11T08:51:14.052Z,6.45
2023-07-11T08:53:51.005Z,12.32
2023-07-11T08:56:25.227Z,17.83
2023-07-11T08:58:55.401Z,6.15
2023-07-11T09:01:39.221Z,10.52
2023-07-11T09:04:13.341Z,9.77
2023-07-11T09:06:46.745Z,9.95
2023-07-11T09:09:17.892Z,10.10
2023-07-11T09:11:56.411Z,8.63
2023-07-11T09:14:35.523Z,11.65
2023-07-11T09:17:12.731Z,16.58
2023-07-11T09:20:02.102Z,15.95
2023-07-11T09:22:44.500Z,11.55
2023-07-11T09:25:20.040Z,13.18
2023-07-11T09:27:54.140Z,12.52
2023-07-11T09:30:30.156Z,10.25
2023-07-11T09:33:13.406Z,12.45
2023-07-11T09:35:44.518Z,10.68
2023-07-11T09:38:23.888Z,10.70
2023-07-11T09:41:00.827Z,8.23
2023-07-11T09:43:29.885Z,13.05
2023-07-11T09:45:58.841Z,7.88
2023-07-11T09:48:32.878Z,11.52
2023-07-11T09:51:14.890Z,19.58
2023-07-11T09:53:45.021Z,13.27
2023-07-11T09:56:17.592Z,17.27
2023-07-11T09:58:50.085Z,12.57
2023-07-11T10:01:23.959Z,9.40
2023-07-11T10:03:56.888Z,9.50
2023-07-11T10:09:17.314Z,7.43
2023-07-11T10:11:54.960Z,7.80
2023-07-11T10:14:28.536Z,9.88
2023-07-11T10:16:59.271Z,10.18
2023-07-11T10:19:31.308Z,13.35
2023-07-11T10:22:02.004Z,9.02
2023-07-11T10:24:40.239Z,12.73
2023-07-11T10:27:16.095Z,12.00
2023-07-11T10:29:49.185Z,11.80
2023-07-11T10:32:27.275Z,10.68
2023-07-11T10:35:00.416Z,15.25
2023-07-11T10:37:35.697Z,9.02
2023-07-11T10:40:14.278Z,11.30
2023-07-11T10:42:50.833Z,11.80
2023-07-11T10:45:24.619Z,14.98
2023-07-11T10:47:58.831Z,17.88
2023-07-11T10:50:38.097Z,16.95
2023-07-11T10:53:19.138Z,11.80
2023-07-11T10:55:56.049Z,16.58
2023-07-11T10:58:26.559Z,11.43
2023-07-11T11:01:13.180Z,9.80
2023-07-11T11:03:44.977Z,13.05
2023-07-11T11:06:37.025Z,17.50
2023-07-11T11:09:14.572Z,10.68
2023-07-11T11:11:58.023Z,11.00
2023-07-11T11:14:35.791Z,12.55
2023-07-11T11:17:21.538Z,13.55
2023-07-11T11:20:01.567Z,13.55
2023-07-11T11:22:41.841Z,14.75
2023-07-11T11:25:22.146Z,16.77
2023-07-11T11:28:01.636Z,12.93
2023-07-11T11:30:50.122Z,9.55
2023-07-11T11:33:34.469Z,13.25
2023-07-11T11:36:10.886Z,15.20
2023-07-11T11:38:56.648Z,25.48
2023-07-11T11:41:38.351Z,13.23
2023-07-11T11:46:53.398Z,16.23
2023-07-11T11:52:01.699Z,26.35
2023-07-11T11:54:38.374Z,23.20
2023-07-11T11:57:08.202Z,13.05
2023-07-11T11:59:37.241Z,16.13
2023-07-11T12:02:15.564Z,23.83
2023-07-11T12:05:01.012Z,24.58
2023-07-11T12:07:34.762Z,22.88
2023-07-11T12:10:25.371Z,20.52
2023-07-11T12:13:22.163Z,24.17
2023-07-11T12:15:54.313Z,26.45
2023-07-11T12:18:43.282Z,18.58
2023-07-11T12:21:34.489Z,22.13
2023-07-11T12:24:43.002Z,22.85
2023-07-11T12:27:28.115Z,18.08
2023-07-11T12:29:57.786Z,14.25
2023-07-11T12:32:50.731Z,15.75
2023-07-11T12:35:24.174Z,18.63
2023-07-11T12:38:16.675Z,18.80
2023-07-11T12:40:55.906Z,13.15
2023-07-11T12:43:27.552Z,13.57
2023-07-11T12:45:58.928Z,12.93
2023-07-11T12:48:30.793Z,14.48
2023-07-11T12:51:08.423Z,16.75
2023-07-11T12:53:38.988Z,18.48
2023-07-11T12:56:15.571Z,11.90
2023-07-11T12:58:46.761Z,12.90
2023-07-11T13:01:18.520Z,16.10
2023-07-11T13:03:47.797Z,20.13
2023-07-11T13:06:27.102Z,10.70
2023-07-11T13:08:58.778Z,12.25
2023-07-11T13:11:29.735Z,15.02
2023-07-11T13:13:59.200Z,15.30
2023-07-11T13:16:34.322Z,10.82
2023-07-11T13:19:04.462Z,12.48
2023-07-11T13:21:35.171Z,10.48
2023-07-11T13:24:04.549Z,17.35
2023-07-11T13:26:33.947Z,12.48
2023-07-11T13:29:14.209Z,14.93
2023-07-11T13:31:43.715Z,15.43
2023-07-11T13:34:15.312Z,21.70
2023-07-11T13:36:47.542Z,20.30
2023-07-11T13:39:18.136Z,22.83
2023-07-11T13:41:49.309Z,14.15
2023-07-11T13:44:25.314Z,10.55
2023-07-11T13:46:54.859Z,12.18
2023-07-11T13:49:27.105Z,13.63
2023-07-11T13:52:02.903Z,12.25
2023-07-11T13:54:34.679Z,12.32
2023-07-11T13:57:04.642Z,11.38
2023-07-11T13:59:38.377Z,12.85
2023-07-11T14:02:16.474Z,13.68
2023-07-11T14:04:47.320Z,10.25
2023-07-11T14:07:17.977Z,10.60
2023-07-11T14:09:46.853Z,10.90
2023-07-11T14:12:16.794Z,5.75
2023-07-11T14:14:45.783Z,8.07
2023-07-11T14:17:18.924Z,10.30
2023-07-11T14:19:48.503Z,15.75
2023-07-11T14:22:23.701Z,8.65
2023-07-11T14:24:52.844Z,12.38
2023-07-11T14:27:21.804Z,10.77
2023-07-11T14:29:50.714Z,12.60
2023-07-11T14:32:21.861Z,7.50
2023-07-11T14:34:50.893Z,11.02
2023-07-11T14:37:21.256Z,15.57
2023-07-11T14:39:50.967Z,11.75
2023-07-11T14:42:28.243Z,14.32
2023-07-11T14:44:57.627Z,11.23
2023-07-11T14:47:26.623Z,6.20
2023-07-11T14:49:55.549Z,14.35
2023-07-11T14:52:30.096Z,13.48
2023-07-11T15:00:04.814Z,11.52
2023-07-11T15:02:35.607Z,9.27
2023-07-11T15:10:11.907Z,9.48
2023-07-11T15:17:49.731Z,5.93
2023-07-11T15:20:22.152Z,12.10
2023-07-11T15:22:55.159Z,11.77
2023-07-11T15:25:30.585Z,14.55
2023-07-11T15:28:00.317Z,11.90
2023-07-11T15:30:30.450Z,11.90
2023-07-11T15:33:00.203Z,12.18
2023-07-11T15:35:30.602Z,9.18
2023-07-11T15:38:02.651Z,7.85
2023-07-11T15:40:33.914Z,12.85
2023-07-11T15:43:03.982Z,9.15
2023-07-11T15:45:33.957Z,12.57
2023-07-11T15:48:02.965Z,7.18
2023-07-11T15:50:32.062Z,8.48
2023-07-11T15:53:02.333Z,13.32
2023-07-11T15:55:34.298Z,13.68
2023-07-11T15:58:03.156Z,9.02
2023-07-11T16:00:33.966Z,13.48
2023-07-11T16:03:03.529Z,9.68
2023-07-11T16:05:37.227Z,10.02
2023-07-11T16:08:18.448Z,12.60
2023-07-11T16:10:48.228Z,8.00
2023-07-11T16:13:20.408Z,14.50
2023-07-11T16:15:50.517Z,13.43
2023-07-11T16:18:21.741Z,5.68
2023-07-11T16:20:53.284Z,12.45
2023-07-11T16:23:25.385Z,10.40
2023-07-11T16:25:56.267Z,9.45
2023-07-11T16:28:28.925Z,18.00
2023-07-11T16:31:05.476Z,13.25
2023-07-11T16:33:35.053Z,10.48
2023-07-11T16:36:03.847Z,8.93
2023-07-11T16:38:35.529Z,7.72
2023-07-11T16:41:04.569Z,18.92
2023-07-11T16:43:33.619Z,15.93
2023-07-11T16:46:04.188Z,11.18
2023-07-11T16:48:34.471Z,12.43
2023-07-11T16:51:06.595Z,8.25
2023-07-11T16:53:38.182Z,5.47
2023-07-11T16:56:07.569Z,10.20
2023-07-11T16:58:40.519Z,9.18
2023-07-11T17:01:16.269Z,11.52
2023-07-11T17:03:45.475Z,7.75
2023-07-11T17:06:24.316Z,11.35
2023-07-11T17:08:54.945Z,10.73
2023-07-11T17:11:23.912Z,10.57
2023-07-11T17:13:52.831Z,10.13
2023-07-11T17:16:30.306Z,12.48
2023-07-11T17:18:59.719Z,17.70
2023-07-11T17:21:28.609Z,10.88
2023-07-11T17:23:59.029Z,10.48
2023-07-11T17:26:27.893Z,13.68
2023-07-11T17:28:56.661Z,10.65
2023-07-11T17:31:25.678Z,12.68
2023-07-11T17:33:54.629Z,12.43
2023-07-11T17:36:23.493Z,13.30
2023-07-11T17:38:52.244Z,11.18
2023-07-11T17:41:22.867Z,12.50
2023-07-11T17:44:03.358Z,11.82
2023-07-11T17:46:46.879Z,11.27
2023-07-11T17:49:19.545Z,14.70
2023-07-11T17:51:50.186Z,10.65
2023-07-11T17:54:20.590Z,15.57
2023-07-11T17:56:59.164Z,9.98
2023-07-11T17:59:28.517Z,12.75
2023-07-11T18:01:57.903Z,13.48
2023-07-11T18:04:26.969Z,10.65
2023-07-11T18:06:55.948Z,13.52
2023-07-11T18:09:24.846Z,8.05
2023-07-11T18:11:55.099Z,11.60
2023-07-11T18:14:24.010Z,9.75
2023-07-11T18:16:52.844Z,10.65
2023-07-11T18:19:21.785Z,11.75
2023-07-11T18:21:50.506Z,15.68
2023-07-11T18:24:19.366Z,13.75
2023-07-11T18:26:48.177Z,9.00
2023-07-11T18:29:18.512Z,11.90
2023-07-11T18:31:47.890Z,15.48
2023-07-11T18:34:16.919Z,18.00
2023-07-11T18:36:45.777Z,12.55
2023-07-11T18:39:14.705Z,13.43
2023-07-11T18:41:43.496Z,17.10
2023-07-11T18:44:12.258Z,10.43
2023-07-11T18:46:42.648Z,17.42
2023-07-11T18:49:11.515Z,15.88
2023-07-11T18:51:40.406Z,13.85
2023-07-11T18:54:09.230Z,11.32
2023-07-11T18:56:38.108Z,13.57
2023-07-11T18:59:06.965Z,13.52
2023-07-11T19:01:36.008Z,19.63
2023-07-11T19:04:06.614Z,15.02
2023-07-11T19:06:35.685Z,16.73
2023-07-11T19:09:04.531Z,14.60
2023-07-11T19:11:34.675Z,12.60
2023-07-11T19:14:03.456Z,17.20
2023-07-11T19:16:32.411Z,14.85
2023-07-11T19:19:00.428Z,16.20
2023-07-11T19:21:30.834Z,17.88
2023-07-11T19:23:59.661Z,17.60
2023-07-11T19:26:28.402Z,14.00
2023-07-11T19:28:57.360Z,12.18
2023-07-11T19:31:26.259Z,15.77
2023-07-11T19:33:55.099Z,16.63
2023-07-11T19:36:26.104Z,10.00
2023-07-11T19:38:57.015Z,15.35
2023-07-11T19:41:26.002Z,19.58
2023-07-11T19:43:54.783Z,17.48
2023-07-11T19:46:24.044Z,19.65
2023-07-11T19:48:52.872Z,18.05
2023-07-11T19:51:21.729Z,20.90
2023-07-11T19:53:50.562Z,15.52
2023-07-11T19:56:25.661Z,13.82
2023-07-11T19:58:54.859Z,16.55
2023-07-11T20:01:24.766Z,18.75
2023-07-11T20:03:55.451Z,13.32
2023-07-11T20:06:25.864Z,13.57
2023-07-11T20:08:55.563Z,18.35
2023-07-11T20:11:26.145Z,17.70
2023-07-11T20:13:55.019Z,18.85
2023-07-11T20:16:26.259Z,15.48
2023-07-11T20:18:56.055Z,15.13
2023-07-11T20:21:25.668Z,14.95
2023-07-11T20:23:57.396Z,17.17
2023-07-11T20:26:29.821Z,18.35
2023-07-11T20:28:59.377Z,22.25
2023-07-11T20:31:29.923Z,14.75
2023-07-11T20:33:59.025Z,17.25
2023-07-11T20:36:32.426Z,20.25
2023-07-11T20:39:01.280Z,24.35
2023-07-11T20:41:31.531Z,21.75
2023-07-11T20:44:01.455Z,16.55
2023-07-11T20:46:30.639Z,16.10
2023-07-11T20:49:01.764Z,18.75
2023-07-11T20:51:31.226Z,13.75
2023-07-11T20:53:59.976Z,16.45
2023-07-11T20:56:31.014Z,25.55
2023-07-11T20:59:00.952Z,13.93
2023-07-11T21:01:29.850Z,14.18
2023-07-11T21:03:58.942Z,17.17
2023-07-11T21:06:31.974Z,17.30
2023-07-11T21:09:00.983Z,14.73
2023-07-11T21:11:31.233Z,20.70
2023-07-11T21:14:00.184Z,20.58
2023-07-11T21:16:34.184Z,18.73
2023-07-11T21:19:04.751Z,19.85
2023-07-11T21:21:33.806Z,17.48
2023-07-11T21:24:02.510Z,13.90
2023-07-11T21:26:34.244Z,18.20
2023-07-11T21:29:08.396Z,11.32
2023-07-11T21:31:37.934Z,18.10
2023-07-11T21:34:07.192Z,13.23
2023-07-11T21:36:36.973Z,16.90
2023-07-11T21:39:07.484Z,17.08
2023-07-11T21:41:37.811Z,11.02
2023-07-11T21:44:06.692Z,17.55
2023-07-11T21:46:36.571Z,14.55
2023-07-11T21:49:05.375Z,16.42
2023-07-11T21:51:34.373Z,15.00
2023-07-11T21:54:04.583Z,16.63
2023-07-11T21:56:33.641Z,15.30
2023-07-11T21:59:04.644Z,17.42
2023-07-11T22:01:33.686Z,21.05
2023-07-11T22:04:03.155Z,18.30
2023-07-11T22:06:32.374Z,19.02
2023-07-11T22:09:01.313Z,19.50
2023-07-11T22:11:30.292Z,17.92
2023-07-11T22:13:59.112Z,17.33
2023-07-11T22:16:31.616Z,21.83
2023-07-11T22:19:00.736Z,16.13
2023-07-11T22:21:29.783Z,17.10
2023-07-11T22:23:59.866Z,19.15
2023-07-11T22:26:32.264Z,15.63
2023-07-11T22:29:02.919Z,17.15
2023-07-11T22:31:33.861Z,16.38
2023-07-11T22:34:02.771Z,16.25
2023-07-11T22:36:33.710Z,15.98
2023-07-11T22:39:02.549Z,14.18
2023-07-11T22:41:31.348Z,19.90
2023-07-11T22:44:01.298Z,16.90
2023-07-11T22:46:30.631Z,16.95
2023-07-11T22:49:00.938Z,18.85
2023-07-11T22:51:29.917Z,16.60
2023-07-11T22:53:58.795Z,18.08
2023-07-11T22:56:27.573Z,10.07
2023-07-11T22:58:56.420Z,19.30
2023-07-11T23:01:26.677Z,12.52
2023-07-11T23:03:55.480Z,14.98
2023-07-11T23:06:28.572Z,15.90
2023-07-11T23:08:58.741Z,20.75
2023-07-11T23:11:27.913Z,17.52
2023-07-11T23:13:58.098Z,15.02
2023-07-11T23:16:30.065Z,19.35
2023-07-11T23:19:01.595Z,15.13
2023-07-11T23:21:33.154Z,22.08
2023-07-11T23:24:02.291Z,18.33
2023-07-11T23:26:31.280Z,18.55
2023-07-11T23:29:01.211Z,24.98
2023-07-11T23:31:30.540Z,14.90
2023-07-11T23:33:59.547Z,18.33
2023-07-11T23:36:28.757Z,12.73
2023-07-11T23:38:59.113Z,15.75
2023-07-11T23:41:28.119Z,21.35
2023-07-11T23:43:56.838Z,14.85
2023-07-11T23:46:29.678Z,18.40
2023-07-11T23:48:59.652Z,18.02
2023-07-11T23:51:30.598Z,19.05
2023-07-11T23:54:02.095Z,21.42
2023-07-11T23:56:32.821Z,23.25
2023-07-11T23:59:02.720Z,18.88
